sensor_id;sensor_type;location;lat;lon;timestamp;pressure;altitude;pressure_sealevel;temperature;humidity
55466;BME280;41329;41.594;23.810;2023-05-25T00:01:40;95228.13;;;16.17;61.35
55466;BME280;41329;41.594;23.810;2023-05-25T00:04:17;95228.16;;;16.13;61.40
55466;BME280;41329;41.594;23.810;2023-05-25T00:06:44;95234.19;;;16.05;61.41
55466;BME280;41329;41.594;23.810;2023-05-25T00:09:14;95229.44;;;15.98;61.13
55466;BME280;41329;41.594;23.810;2023-05-25T00:11:40;95228.72;;;15.91;61.58
55466;BME280;41329;41.594;23.810;2023-05-25T00:14:05;95237.91;;;15.84;61.79
55466;BME280;41329;41.594;23.810;2023-05-25T00:16:32;95243.53;;;15.77;62.09
55466;BME280;41329;41.594;23.810;2023-05-25T00:19:07;95240.00;;;15.70;62.47
55466;BME280;41329;41.594;23.810;2023-05-25T00:21:34;95226.44;;;15.68;62.74
55466;BME280;41329;41.594;23.810;2023-05-25T00:24:03;95233.22;;;15.64;62.96
55466;BME280;41329;41.594;23.810;2023-05-25T00:26:28;95230.47;;;15.60;63.21
55466;BME280;41329;41.594;23.810;2023-05-25T00:28:54;95188.03;;;15.21;63.17
55466;BME280;41329;41.594;23.810;2023-05-25T00:31:19;95242.06;;;15.48;63.32
55466;BME280;41329;41.594;23.810;2023-05-25T00:33:45;95189.66;;;15.08;63.54
55466;BME280;41329;41.594;23.810;2023-05-25T00:36:10;95246.91;;;15.41;63.50
55466;BME280;41329;41.594;23.810;2023-05-25T00:38:35;95243.31;;;15.33;63.58
55466;BME280;41329;41.594;23.810;2023-05-25T00:41:01;95246.91;;;15.30;63.98
55466;BME280;41329;41.594;23.810;2023-05-25T00:43:30;95239.34;;;15.34;63.96
55466;BME280;41329;41.594;23.810;2023-05-25T00:45:55;95209.53;;;15.17;63.97
55466;BME280;41329;41.594;23.810;2023-05-25T00:48:24;95249.66;;;15.34;63.84
55466;BME280;41329;41.594;23.810;2023-05-25T00:50:53;95235.38;;;15.25;63.94
55466;BME280;41329;41.594;23.810;2023-05-25T00:53:18;95238.19;;;15.21;64.29
55466;BME280;41329;41.594;23.810;2023-05-25T00:55:57;95240.16;;;15.24;64.02
55466;BME280;41329;41.594;23.810;2023-05-25T00:58:30;95195.66;;;15.00;63.82
55466;BME280;41329;41.594;23.810;2023-05-25T01:00:58;95252.50;;;15.37;64.54
55466;BME280;41329;41.594;23.810;2023-05-25T01:03:27;95253.66;;;15.36;64.79
55466;BME280;41329;41.594;23.810;2023-05-25T01:05:58;95224.63;;;15.23;64.75
55466;BME280;41329;41.594;23.810;2023-05-25T01:08:24;95242.94;;;15.35;64.79
55466;BME280;41329;41.594;23.810;2023-05-25T01:10:51;95182.16;;;14.91;64.70
55466;BME280;41329;41.594;23.810;2023-05-25T01:13:18;95192.88;;;15.00;64.75
55466;BME280;41329;41.594;23.810;2023-05-25T01:15:45;95237.34;;;15.31;64.54
55466;BME280;41329;41.594;23.810;2023-05-25T01:18:14;95256.88;;;15.35;64.25
55466;BME280;41329;41.594;23.810;2023-05-25T01:21:08;95253.28;;;15.34;64.27
55466;BME280;41329;41.594;23.810;2023-05-25T01:24:03;95254.47;;;15.37;65.38
55466;BME280;41329;41.594;23.810;2023-05-25T01:26:35;95258.84;;;15.38;65.67
55466;BME280;41329;41.594;23.810;2023-05-25T01:29:04;95241.31;;;15.34;65.78
55466;BME280;41329;41.594;23.810;2023-05-25T01:31:32;95241.34;;;15.37;65.48
55466;BME280;41329;41.594;23.810;2023-05-25T01:33:58;95248.50;;;15.38;64.93
55466;BME280;41329;41.594;23.810;2023-05-25T01:36:24;95254.88;;;15.42;64.81
55466;BME280;41329;41.594;23.810;2023-05-25T01:38:49;95251.28;;;15.42;64.40
55466;BME280;41329;41.594;23.810;2023-05-25T01:41:15;95236.16;;;15.29;64.51
55466;BME280;41329;41.594;23.810;2023-05-25T01:43:40;95244.13;;;15.37;64.61
55466;BME280;41329;41.594;23.810;2023-05-25T01:46:25;95254.06;;;15.35;64.94
55466;BME280;41329;41.594;23.810;2023-05-25T01:49:20;95259.28;;;15.22;64.99
55466;BME280;41329;41.594;23.810;2023-05-25T01:52:06;95253.28;;;15.20;65.04
55466;BME280;41329;41.594;23.810;2023-05-25T01:54:37;95251.31;;;15.14;65.15
55466;BME280;41329;41.594;23.810;2023-05-25T01:57:06;95249.34;;;15.14;65.40
55466;BME280;41329;41.594;23.810;2023-05-25T01:59:35;95239.81;;;15.05;65.54
55466;BME280;41329;41.594;23.810;2023-05-25T02:02:03;95249.75;;;15.06;65.60
55466;BME280;41329;41.594;23.810;2023-05-25T02:04:29;95250.22;;;14.94;65.48
55466;BME280;41329;41.594;23.810;2023-05-25T02:06:55;95250.22;;;14.87;65.18
55466;BME280;41329;41.594;23.810;2023-05-25T02:09:21;95265.72;;;14.95;65.11
55466;BME280;41329;41.594;23.810;2023-05-25T02:11:47;95266.13;;;14.90;64.86
55466;BME280;41329;41.594;23.810;2023-05-25T02:14:13;95264.94;;;14.87;65.11
55466;BME280;41329;41.594;23.810;2023-05-25T02:16:39;95211.28;;;14.48;65.47
55466;BME280;41329;41.594;23.810;2023-05-25T02:19:04;95260.16;;;14.77;65.56
55466;BME280;41329;41.594;23.810;2023-05-25T02:21:30;95266.16;;;14.79;66.05
55466;BME280;41329;41.594;23.810;2023-05-25T02:23:56;95253.41;;;14.71;66.41
55466;BME280;41329;41.594;23.810;2023-05-25T02:26:22;95276.47;;;14.82;66.32
55466;BME280;41329;41.594;23.810;2023-05-25T02:28:47;95270.91;;;14.79;66.34
55466;BME280;41329;41.594;23.810;2023-05-25T02:31:13;95243.91;;;14.58;65.85
55466;BME280;41329;41.594;23.810;2023-05-25T02:33:38;95263.75;;;14.64;66.24
55466;BME280;41329;41.594;23.810;2023-05-25T02:36:03;95271.72;;;14.69;66.42
55466;BME280;41329;41.594;23.810;2023-05-25T02:38:29;95264.56;;;14.61;66.28
55466;BME280;41329;41.594;23.810;2023-05-25T02:41:04;95269.75;;;14.55;66.30
55466;BME280;41329;41.594;23.810;2023-05-25T02:43:29;95278.50;;;14.54;66.50
55466;BME280;41329;41.594;23.810;2023-05-25T02:48:31;95259.00;;;14.29;66.90
55466;BME280;41329;41.594;23.810;2023-05-25T02:50:56;95261.38;;;14.34;67.10
55466;BME280;41329;41.594;23.810;2023-05-25T02:53:21;95281.66;;;14.38;66.84
55466;BME280;41329;41.594;23.810;2023-05-25T02:55:47;95275.69;;;14.33;66.59
55466;BME280;41329;41.594;23.810;2023-05-25T02:58:12;95282.06;;;14.33;66.75
55466;BME280;41329;41.594;23.810;2023-05-25T03:00:37;95276.50;;;14.26;67.06
55466;BME280;41329;41.594;23.810;2023-05-25T03:03:03;95275.28;;;14.24;67.36
55466;BME280;41329;41.594;23.810;2023-05-25T03:05:29;95285.25;;;14.32;67.54
55466;BME280;41329;41.594;23.810;2023-05-25T03:07:54;95288.44;;;14.30;66.92
55466;BME280;41329;41.594;23.810;2023-05-25T03:10:20;95295.97;;;14.37;66.84
55466;BME280;41329;41.594;23.810;2023-05-25T03:12:45;95266.91;;;14.17;66.74
55466;BME280;41329;41.594;23.810;2023-05-25T03:15:11;95298.34;;;14.31;66.68
55466;BME280;41329;41.594;23.810;2023-05-25T03:17:38;95306.31;;;14.29;66.80
55466;BME280;41329;41.594;23.810;2023-05-25T03:20:03;95299.53;;;14.23;66.82
55466;BME280;41329;41.594;23.810;2023-05-25T03:22:30;95282.81;;;14.06;66.29
55466;BME280;41329;41.594;23.810;2023-05-25T03:24:55;95279.22;;;14.05;66.19
55466;BME280;41329;41.594;23.810;2023-05-25T03:27:21;95295.53;;;14.03;66.36
55466;BME280;41329;41.594;23.810;2023-05-25T03:29:48;95313.00;;;14.14;66.46
55466;BME280;41329;41.594;23.810;2023-05-25T03:32:14;95312.56;;;13.91;67.17
55466;BME280;41329;41.594;23.810;2023-05-25T03:34:39;95327.22;;;13.81;68.47
55466;BME280;41329;41.594;23.810;2023-05-25T03:37:05;95328.06;;;13.89;68.62
55466;BME280;41329;41.594;23.810;2023-05-25T03:39:30;95321.69;;;13.85;68.72
55466;BME280;41329;41.594;23.810;2023-05-25T03:41:56;95325.69;;;13.87;69.03
55466;BME280;41329;41.594;23.810;2023-05-25T03:44:22;95329.69;;;13.97;68.98
55466;BME280;41329;41.594;23.810;2023-05-25T03:46:48;95332.84;;;13.95;68.37
55466;BME280;41329;41.594;23.810;2023-05-25T03:49:14;95334.44;;;14.00;68.39
55466;BME280;41329;41.594;23.810;2023-05-25T03:51:40;95333.66;;;14.03;68.38
55466;BME280;41329;41.594;23.810;2023-05-25T03:54:05;95336.84;;;14.05;68.52
55466;BME280;41329;41.594;23.810;2023-05-25T03:56:31;95315.34;;;13.91;68.85
55466;BME280;41329;41.594;23.810;2023-05-25T03:58:56;95325.72;;;14.01;68.12
55466;BME280;41329;41.594;23.810;2023-05-25T04:01:22;95330.50;;;14.04;67.85
55466;BME280;41329;41.594;23.810;2023-05-25T04:03:50;95334.03;;;14.05;68.22
55466;BME280;41329;41.594;23.810;2023-05-25T04:06:17;95323.31;;;14.00;68.58
55466;BME280;41329;41.594;23.810;2023-05-25T04:08:43;95331.28;;;14.12;69.01
55466;BME280;41329;41.594;23.810;2023-05-25T04:11:09;95303.84;;;13.96;69.00
55466;BME280;41329;41.594;23.810;2023-05-25T04:13:35;95329.72;;;14.18;69.09
55466;BME280;41329;41.594;23.810;2023-05-25T04:16:01;95326.16;;;14.17;69.41
55466;BME280;41329;41.594;23.810;2023-05-25T04:18:26;95316.19;;;14.13;69.54
55466;BME280;41329;41.594;23.810;2023-05-25T04:20:52;95339.31;;;14.38;69.64
55466;BME280;41329;41.594;23.810;2023-05-25T04:23:19;95349.66;;;14.41;69.94
55466;BME280;41329;41.594;23.810;2023-05-25T04:25:45;95332.16;;;14.33;69.98
55466;BME280;41329;41.594;23.810;2023-05-25T04:28:11;95326.59;;;14.26;70.29
55466;BME280;41329;41.594;23.810;2023-05-25T04:30:37;95344.91;;;14.48;70.21
55466;BME280;41329;41.594;23.810;2023-05-25T04:33:03;95334.97;;;14.47;70.33
55466;BME280;41329;41.594;23.810;2023-05-25T04:35:29;95355.66;;;14.60;70.37
55466;BME280;41329;41.594;23.810;2023-05-25T04:37:56;95339.34;;;14.55;70.42
55466;BME280;41329;41.594;23.810;2023-05-25T04:40:21;95352.88;;;14.74;70.47
55466;BME280;41329;41.594;23.810;2023-05-25T04:42:46;95332.19;;;14.72;70.57
55466;BME280;41329;41.594;23.810;2023-05-25T04:45:12;95350.50;;;14.94;70.62
55466;BME280;41329;41.594;23.810;2023-05-25T04:47:41;95349.28;;;15.05;70.84
55466;BME280;41329;41.594;23.810;2023-05-25T04:50:08;95353.28;;;14.97;69.76
55466;BME280;41329;41.594;23.810;2023-05-25T04:52:35;95350.50;;;15.04;69.95
55466;BME280;41329;41.594;23.810;2023-05-25T04:55:00;95336.53;;;15.11;69.76
55466;BME280;41329;41.594;23.810;2023-05-25T04:57:27;95319.44;;;15.02;69.56
55466;BME280;41329;41.594;23.810;2023-05-25T04:59:53;95322.19;;;15.13;69.71
55466;BME280;41329;41.594;23.810;2023-05-25T05:02:19;95317.03;;;15.11;69.05
55466;BME280;41329;41.594;23.810;2023-05-25T05:04:44;95340.09;;;15.29;69.18
55466;BME280;41329;41.594;23.810;2023-05-25T05:07:10;95346.84;;;15.39;69.15
55466;BME280;41329;41.594;23.810;2023-05-25T05:09:36;95350.44;;;15.43;68.87
55466;BME280;41329;41.594;23.810;2023-05-25T05:12:01;95333.72;;;15.39;68.88
55466;BME280;41329;41.594;23.810;2023-05-25T05:14:27;95339.66;;;15.52;69.11
55466;BME280;41329;41.594;23.810;2023-05-25T05:16:52;95342.84;;;15.54;69.32
55466;BME280;41329;41.594;23.810;2023-05-25T05:19:18;95336.09;;;15.51;69.06
55466;BME280;41329;41.594;23.810;2023-05-25T05:21:43;95318.97;;;15.39;69.07
55466;BME280;41329;41.594;23.810;2023-05-25T05:24:09;95336.06;;;15.55;69.34
55466;BME280;41329;41.594;23.810;2023-05-25T05:26:34;95334.44;;;15.71;69.08
55466;BME280;41329;41.594;23.810;2023-05-25T05:29:00;95331.16;;;15.83;69.03
55466;BME280;41329;41.594;23.810;2023-05-25T05:31:25;95333.09;;;15.97;69.08
55466;BME280;41329;41.594;23.810;2023-05-25T05:33:51;95328.72;;;16.03;68.63
55466;BME280;41329;41.594;23.810;2023-05-25T05:36:17;95331.88;;;16.05;68.26
55466;BME280;41329;41.594;23.810;2023-05-25T05:38:43;95332.63;;;16.12;68.49
55466;BME280;41329;41.594;23.810;2023-05-25T05:41:11;95324.22;;;16.19;67.98
55466;BME280;41329;41.594;23.810;2023-05-25T05:43:41;95322.53;;;16.32;67.50
55466;BME280;41329;41.594;23.810;2023-05-25T05:46:08;95328.91;;;16.36;67.19
55466;BME280;41329;41.594;23.810;2023-05-25T05:48:35;95280.81;;;16.11;67.09
55466;BME280;41329;41.594;23.810;2023-05-25T05:51:03;95333.34;;;16.27;67.75
55466;BME280;41329;41.594;23.810;2023-05-25T05:53:28;95311.78;;;16.34;67.33
55466;BME280;41329;41.594;23.810;2023-05-25T05:55:53;95309.75;;;16.38;66.83
55466;BME280;41329;41.594;23.810;2023-05-25T05:58:23;95287.56;;;16.17;66.58
55466;BME280;41329;41.594;23.810;2023-05-25T06:00:51;95302.28;;;16.21;66.52
55466;BME280;41329;41.594;23.810;2023-05-25T06:03:17;95314.94;;;16.36;66.61
55466;BME280;41329;41.594;23.810;2023-05-25T06:05:43;95297.06;;;16.23;67.04
55466;BME280;41329;41.594;23.810;2023-05-25T06:08:08;95306.19;;;16.34;66.35
55466;BME280;41329;41.594;23.810;2023-05-25T06:10:34;95302.25;;;16.25;67.19
55466;BME280;41329;41.594;23.810;2023-05-25T06:13:00;95298.66;;;16.28;66.73
55466;BME280;41329;41.594;23.810;2023-05-25T06:15:25;95289.50;;;16.20;67.41
55466;BME280;41329;41.594;23.810;2023-05-25T06:17:51;95277.09;;;16.28;66.90
55466;BME280;41329;41.594;23.810;2023-05-25T06:20:16;95294.16;;;16.44;66.70
55466;BME280;41329;41.594;23.810;2023-05-25T06:22:41;95289.41;;;16.41;66.51
55466;BME280;41329;41.594;23.810;2023-05-25T06:25:07;95292.97;;;16.45;66.15
55466;BME280;41329;41.594;23.810;2023-05-25T06:27:34;95299.63;;;16.58;66.47
55466;BME280;41329;41.594;23.810;2023-05-25T06:30:00;95266.25;;;16.44;66.32
55466;BME280;41329;41.594;23.810;2023-05-25T06:32:26;95299.59;;;16.65;65.99
55466;BME280;41329;41.594;23.810;2023-05-25T06:34:51;95290.78;;;16.70;65.81
55466;BME280;41329;41.594;23.810;2023-05-25T06:37:16;95268.88;;;16.65;67.21
55466;BME280;41329;41.594;23.810;2023-05-25T06:39:42;95283.00;;;16.92;66.46
55466;BME280;41329;41.594;23.810;2023-05-25T06:42:10;95291.03;;;16.86;66.54
55466;BME280;41329;41.594;23.810;2023-05-25T06:44:36;95288.44;;;17.06;65.96
55466;BME280;41329;41.594;23.810;2023-05-25T06:47:01;95282.69;;;17.23;65.77
55466;BME280;41329;41.594;23.810;2023-05-25T06:49:28;95289.69;;;17.38;64.59
55466;BME280;41329;41.594;23.810;2023-05-25T06:51:53;95290.91;;;17.41;62.53
55466;BME280;41329;41.594;23.810;2023-05-25T06:54:19;95288.44;;;17.50;62.91
55466;BME280;41329;41.594;23.810;2023-05-25T06:56:44;95284.69;;;17.60;62.64
55466;BME280;41329;41.594;23.810;2023-05-25T06:59:10;95277.34;;;17.73;63.00
55466;BME280;41329;41.594;23.810;2023-05-25T07:01:36;95260.97;;;17.71;62.94
55466;BME280;41329;41.594;23.810;2023-05-25T07:04:01;95265.53;;;17.92;63.16
55466;BME280;41329;41.594;23.810;2023-05-25T07:06:27;95260.53;;;18.07;61.55
55466;BME280;41329;41.594;23.810;2023-05-25T07:08:52;95273.16;;;18.18;60.45
55466;BME280;41329;41.594;23.810;2023-05-25T07:11:19;95254.66;;;18.24;60.59
55466;BME280;41329;41.594;23.810;2023-05-25T07:13:46;95268.50;;;18.38;60.02
55466;BME280;41329;41.594;23.810;2023-05-25T07:16:12;95262.66;;;18.52;59.53
55466;BME280;41329;41.594;23.810;2023-05-25T07:18:38;95224.09;;;18.37;60.59
55466;BME280;41329;41.594;23.810;2023-05-25T07:21:05;95225.44;;;18.52;60.75
55466;BME280;41329;41.594;23.810;2023-05-25T07:23:34;95255.94;;;18.96;60.41
55466;BME280;41329;41.594;23.810;2023-05-25T07:25:59;95260.63;;;19.02;59.12
55466;BME280;41329;41.594;23.810;2023-05-25T07:28:25;95250.19;;;19.26;59.20
55466;BME280;41329;41.594;23.810;2023-05-25T07:30:50;95261.94;;;19.40;58.28
55466;BME280;41329;41.594;23.810;2023-05-25T07:33:17;95209.03;;;18.96;58.50
55466;BME280;41329;41.594;23.810;2023-05-25T07:35:42;95244.38;;;19.13;59.03
55466;BME280;41329;41.594;23.810;2023-05-25T07:38:08;95236.88;;;19.07;58.61
55466;BME280;41329;41.594;23.810;2023-05-25T07:40:33;95247.31;;;19.49;58.78
55466;BME280;41329;41.594;23.810;2023-05-25T07:42:58;95253.25;;;19.74;58.20
55466;BME280;41329;41.594;23.810;2023-05-25T07:45:24;95242.94;;;19.87;57.32
55466;BME280;41329;41.594;23.810;2023-05-25T07:47:49;95244.09;;;20.09;57.60
55466;BME280;41329;41.594;23.810;2023-05-25T07:50:15;95247.03;;;20.02;54.60
55466;BME280;41329;41.594;23.810;2023-05-25T07:52:41;95234.50;;;20.06;55.44
55466;BME280;41329;41.594;23.810;2023-05-25T07:55:06;95216.50;;;20.04;54.45
55466;BME280;41329;41.594;23.810;2023-05-25T07:57:32;95231.00;;;20.38;55.77
55466;BME280;41329;41.594;23.810;2023-05-25T07:59:58;95229.50;;;20.49;55.82
55466;BME280;41329;41.594;23.810;2023-05-25T08:02:24;95234.72;;;20.67;55.67
55466;BME280;41329;41.594;23.810;2023-05-25T08:04:49;95237.00;;;20.72;55.93
55466;BME280;41329;41.594;23.810;2023-05-25T08:07:15;95218.34;;;20.78;56.75
55466;BME280;41329;41.594;23.810;2023-05-25T08:09:40;95210.44;;;20.89;59.17
55466;BME280;41329;41.594;23.810;2023-05-25T08:12:06;95212.91;;;21.03;54.93
55466;BME280;41329;41.594;23.810;2023-05-25T08:14:31;95222.63;;;21.30;55.36
55466;BME280;41329;41.594;23.810;2023-05-25T08:16:56;95207.72;;;21.46;55.59
55466;BME280;41329;41.594;23.810;2023-05-25T08:19:22;95218.34;;;21.83;55.77
55466;BME280;41329;41.594;23.810;2023-05-25T08:21:47;95211.47;;;21.84;53.13
55466;BME280;41329;41.594;23.810;2023-05-25T08:24:12;95185.13;;;21.62;53.68
55466;BME280;41329;41.594;23.810;2023-05-25T08:26:38;95213.16;;;21.81;53.47
55466;BME280;41329;41.594;23.810;2023-05-25T08:29:05;95199.13;;;21.65;53.61
55466;BME280;41329;41.594;23.810;2023-05-25T08:31:36;95203.38;;;21.57;53.37
55466;BME280;41329;41.594;23.810;2023-05-25T08:34:01;95193.13;;;21.51;53.17
55466;BME280;41329;41.594;23.810;2023-05-25T08:36:27;95198.19;;;21.56;53.29
55466;BME280;41329;41.594;23.810;2023-05-25T08:38:52;95200.41;;;21.48;53.33
55466;BME280;41329;41.594;23.810;2023-05-25T08:41:18;95205.91;;;21.68;55.45
55466;BME280;41329;41.594;23.810;2023-05-25T08:43:45;95143.13;;;21.55;54.80
55466;BME280;41329;41.594;23.810;2023-05-25T08:46:11;95185.00;;;21.81;52.92
55466;BME280;41329;41.594;23.810;2023-05-25T08:48:37;95204.50;;;21.88;54.05
55466;BME280;41329;41.594;23.810;2023-05-25T08:51:07;95200.13;;;22.00;55.36
55466;BME280;41329;41.594;23.810;2023-05-25T08:53:35;95204.09;;;22.15;53.61
55466;BME280;41329;41.594;23.810;2023-05-25T08:56:13;95180.41;;;21.87;51.72
55466;BME280;41329;41.594;23.810;2023-05-25T08:58:45;95174.88;;;21.96;51.16
55466;BME280;41329;41.594;23.810;2023-05-25T09:01:17;95196.09;;;22.26;52.11
55466;BME280;41329;41.594;23.810;2023-05-25T09:03:44;95167.13;;;22.13;51.70
55466;BME280;41329;41.594;23.810;2023-05-25T09:06:10;95201.53;;;22.45;52.24
55466;BME280;41329;41.594;23.810;2023-05-25T09:08:37;95171.31;;;22.33;51.53
55466;BME280;41329;41.594;23.810;2023-05-25T09:11:04;95194.22;;;22.48;51.28
55466;BME280;41329;41.594;23.810;2023-05-25T09:13:30;95189.81;;;22.47;51.73
55466;BME280;41329;41.594;23.810;2023-05-25T09:15:56;95181.25;;;22.50;52.05
55466;BME280;41329;41.594;23.810;2023-05-25T09:18:21;95193.53;;;22.69;51.02
55466;BME280;41329;41.594;23.810;2023-05-25T09:20:47;95191.34;;;22.85;52.10
55466;BME280;41329;41.594;23.810;2023-05-25T09:23:13;95173.50;;;23.01;51.43
55466;BME280;41329;41.594;23.810;2023-05-25T09:25:39;95173.69;;;23.19;52.27
55466;BME280;41329;41.594;23.810;2023-05-25T09:28:07;95162.81;;;23.30;49.33
55466;BME280;41329;41.594;23.810;2023-05-25T09:30:34;95187.72;;;23.66;48.70
55466;BME280;41329;41.594;23.810;2023-05-25T09:33:11;95174.34;;;23.57;45.18
55466;BME280;41329;41.594;23.810;2023-05-25T09:35:37;95159.66;;;23.50;45.30
55466;BME280;41329;41.594;23.810;2023-05-25T09:38:03;95183.59;;;23.58;44.63
55466;BME280;41329;41.594;23.810;2023-05-25T09:40:30;95187.81;;;23.53;45.00
55466;BME280;41329;41.594;23.810;2023-05-25T09:42:58;95174.31;;;23.36;45.16
55466;BME280;41329;41.594;23.810;2023-05-25T09:45:23;95161.16;;;23.08;45.97
55466;BME280;41329;41.594;23.810;2023-05-25T09:47:53;95153.03;;;23.10;46.60
55466;BME280;41329;41.594;23.810;2023-05-25T09:50:19;95180.78;;;23.24;47.26
55466;BME280;41329;41.594;23.810;2023-05-25T09:52:45;95178.59;;;23.40;47.87
55466;BME280;41329;41.594;23.810;2023-05-25T09:55:11;95173.06;;;23.37;46.63
55466;BME280;41329;41.594;23.810;2023-05-25T09:57:37;95171.28;;;23.30;47.67
55466;BME280;41329;41.594;23.810;2023-05-25T10:00:03;95173.94;;;23.46;46.97
55466;BME280;41329;41.594;23.810;2023-05-25T10:02:29;95160.94;;;23.27;46.17
55466;BME280;41329;41.594;23.810;2023-05-25T10:04:58;95162.22;;;23.35;46.05
55466;BME280;41329;41.594;23.810;2023-05-25T10:07:24;95160.19;;;23.36;44.41
55466;BME280;41329;41.594;23.810;2023-05-25T10:09:51;95161.44;;;23.35;43.45
55466;BME280;41329;41.594;23.810;2023-05-25T10:12:19;95159.34;;;23.48;44.69
55466;BME280;41329;41.594;23.810;2023-05-25T10:14:49;95162.31;;;23.87;43.86
55466;BME280;41329;41.594;23.810;2023-05-25T10:17:22;95133.84;;;24.03;43.19
55466;BME280;41329;41.594;23.810;2023-05-25T10:19:54;95132.25;;;24.02;42.35
55466;BME280;41329;41.594;23.810;2023-05-25T10:22:30;95152.47;;;24.22;43.40
55466;BME280;41329;41.594;23.810;2023-05-25T10:27:40;95150.84;;;24.43;45.15
55466;BME280;41329;41.594;23.810;2023-05-25T10:30:07;95145.34;;;24.48;45.83
55466;BME280;41329;41.594;23.810;2023-05-25T10:32:36;95144.75;;;24.53;45.88
55466;BME280;41329;41.594;23.810;2023-05-25T10:35:02;95144.03;;;24.71;46.48
55466;BME280;41329;41.594;23.810;2023-05-25T10:37:29;95137.47;;;24.83;47.13
55466;BME280;41329;41.594;23.810;2023-05-25T10:39:56;95140.63;;;24.85;43.48
55466;BME280;41329;41.594;23.810;2023-05-25T10:42:22;95125.03;;;24.80;44.61
55466;BME280;41329;41.594;23.810;2023-05-25T10:44:48;95121.94;;;24.87;43.58
55466;BME280;41329;41.594;23.810;2023-05-25T10:47:15;95095.19;;;24.79;44.44
55466;BME280;41329;41.594;23.810;2023-05-25T10:49:52;95084.63;;;24.80;43.68
55466;BME280;41329;41.594;23.810;2023-05-25T10:52:18;95092.03;;;24.86;44.48
55466;BME280;41329;41.594;23.810;2023-05-25T10:54:47;95108.72;;;24.93;44.89
55466;BME280;41329;41.594;23.810;2023-05-25T10:57:21;95116.28;;;24.96;44.34
55466;BME280;41329;41.594;23.810;2023-05-25T10:59:54;95109.66;;;24.99;44.45
55466;BME280;41329;41.594;23.810;2023-05-25T11:02:27;95107.00;;;25.05;43.21
55466;BME280;41329;41.594;23.810;2023-05-25T11:07:57;95113.44;;;25.14;43.10
55466;BME280;41329;41.594;23.810;2023-05-25T11:10:42;95112.81;;;25.19;43.28
55466;BME280;41329;41.594;23.810;2023-05-25T11:16:22;95116.63;;;25.34;42.20
55466;BME280;41329;41.594;23.810;2023-05-25T11:18:56;95121.03;;;25.35;41.59
55466;BME280;41329;41.594;23.810;2023-05-25T11:21:40;95121.50;;;25.43;41.66
55466;BME280;41329;41.594;23.810;2023-05-25T11:24:11;95120.72;;;25.42;39.60
55466;BME280;41329;41.594;23.810;2023-05-25T11:26:59;95123.56;;;25.33;39.34
55466;BME280;41329;41.594;23.810;2023-05-25T11:29:29;95120.09;;;25.29;40.30
55466;BME280;41329;41.594;23.810;2023-05-25T11:31:55;95110.31;;;25.12;39.82
55466;BME280;41329;41.594;23.810;2023-05-25T11:34:22;95120.66;;;24.88;40.68
55466;BME280;41329;41.594;23.810;2023-05-25T11:36:52;95128.31;;;24.61;42.00
55466;BME280;41329;41.594;23.810;2023-05-25T11:39:21;95139.00;;;24.35;44.50
55466;BME280;41329;41.594;23.810;2023-05-25T11:41:55;95123.50;;;23.57;45.13
55466;BME280;41329;41.594;23.810;2023-05-25T11:44:32;95116.94;;;23.05;44.69
55466;BME280;41329;41.594;23.810;2023-05-25T11:47:07;95118.88;;;22.95;50.94
55466;BME280;41329;41.594;23.810;2023-05-25T11:49:34;95128.72;;;22.90;48.06
55466;BME280;41329;41.594;23.810;2023-05-25T11:52:04;95122.00;;;22.63;46.85
55466;BME280;41329;41.594;23.810;2023-05-25T11:54:31;95140.06;;;22.65;50.13
55466;BME280;41329;41.594;23.810;2023-05-25T11:56:57;95132.19;;;22.48;55.30
55466;BME280;41329;41.594;23.810;2023-05-25T11:59:27;95151.81;;;22.39;54.16
55466;BME280;41329;41.594;23.810;2023-05-25T12:01:57;95140.75;;;22.32;53.74
55466;BME280;41329;41.594;23.810;2023-05-25T12:04:23;95145.03;;;21.99;54.99
55466;BME280;41329;41.594;23.810;2023-05-25T12:06:49;95176.81;;;21.99;55.79
55466;BME280;41329;41.594;23.810;2023-05-25T12:09:19;95188.94;;;21.84;56.76
55466;BME280;41329;41.594;23.810;2023-05-25T12:11:46;95191.53;;;21.78;57.09
55466;BME280;41329;41.594;23.810;2023-05-25T12:14:12;95195.53;;;21.65;56.87
55466;BME280;41329;41.594;23.810;2023-05-25T12:16:38;95182.25;;;21.37;57.26
55466;BME280;41329;41.594;23.810;2023-05-25T12:19:06;95192.50;;;21.43;57.17
55466;BME280;41329;41.594;23.810;2023-05-25T12:21:31;95218.50;;;21.35;58.12
55466;BME280;41329;41.594;23.810;2023-05-25T12:23:57;95195.88;;;21.10;59.50
55466;BME280;41329;41.594;23.810;2023-05-25T12:26:24;95211.94;;;21.09;59.35
55466;BME280;41329;41.594;23.810;2023-05-25T12:29:04;95222.59;;;21.18;59.60
55466;BME280;41329;41.594;23.810;2023-05-25T12:31:36;95214.84;;;21.06;59.64
55466;BME280;41329;41.594;23.810;2023-05-25T12:34:16;95218.22;;;21.01;60.44
55466;BME280;41329;41.594;23.810;2023-05-25T12:36:48;95217.84;;;20.99;60.06
55466;BME280;41329;41.594;23.810;2023-05-25T12:39:37;95213.63;;;20.91;59.67
55466;BME280;41329;41.594;23.810;2023-05-25T12:42:04;95217.84;;;20.67;60.93
55466;BME280;41329;41.594;23.810;2023-05-25T12:44:31;95239.00;;;20.55;62.26
55466;BME280;41329;41.594;23.810;2023-05-25T12:49:34;95220.19;;;20.36;62.46
55466;BME280;41329;41.594;23.810;2023-05-25T12:52:02;95230.03;;;20.44;63.16
55466;BME280;41329;41.594;23.810;2023-05-25T12:54:44;95218.69;;;20.32;63.92
55466;BME280;41329;41.594;23.810;2023-05-25T12:57:15;95230.25;;;20.18;65.10
55466;BME280;41329;41.594;23.810;2023-05-25T12:59:43;95154.25;;;19.70;65.43
55466;BME280;41329;41.594;23.810;2023-05-25T13:02:09;95220.19;;;20.01;66.70
55466;BME280;41329;41.594;23.810;2023-05-25T13:04:36;95223.00;;;20.01;67.30
55466;BME280;41329;41.594;23.810;2023-05-25T13:07:02;95221.47;;;19.96;67.76